sensor_id;sensor_type;location;lat;lon;timestamp;temperature;humidity
33827;DHT22;20128;45.582;5.298;2023-04-10T15:36:39;23.00;33.90
33827;DHT22;20128;45.582;5.298;2023-04-10T15:39:05;23.00;34.00
33827;DHT22;20128;45.582;5.298;2023-04-10T15:41:30;22.90;34.00
33827;DHT22;20128;45.582;5.298;2023-04-10T15:43:57;22.90;34.60
33827;DHT22;20128;45.582;5.298;2023-04-10T15:46:22;22.90;35.70
33827;DHT22;20128;45.582;5.298;2023-04-10T15:48:48;22.90;34.60
33827;DHT22;20128;45.582;5.298;2023-04-10T15:51:13;22.80;34.10
33827;DHT22;20128;45.582;5.298;2023-04-10T15:53:39;22.80;34.00
33827;DHT22;20128;45.582;5.298;2023-04-10T15:56:05;22.80;34.10
33827;DHT22;20128;45.582;5.298;2023-04-10T15:58:32;22.80;33.90
33827;DHT22;20128;45.582;5.298;2023-04-10T16:00:57;22.80;34.30
33827;DHT22;20128;45.582;5.298;2023-04-10T16:03:23;22.70;34.70
33827;DHT22;20128;45.582;5.298;2023-04-10T16:05:49;22.70;35.20
33827;DHT22;20128;45.582;5.298;2023-04-10T16:08:14;22.70;36.00
33827;DHT22;20128;45.582;5.298;2023-04-10T16:10:40;22.70;35.10
33827;DHT22;20128;45.582;5.298;2023-04-10T16:13:06;22.70;35.80
33827;DHT22;20128;45.582;5.298;2023-04-10T16:15:35;22.60;36.60
33827;DHT22;20128;45.582;5.298;2023-04-10T16:18:05;22.60;36.50
33827;DHT22;20128;45.582;5.298;2023-04-10T16:20:32;22.60;36.50
33827;DHT22;20128;45.582;5.298;2023-04-10T16:22:58;22.60;36.10
33827;DHT22;20128;45.582;5.298;2023-04-10T16:25:25;22.60;36.50
33827;DHT22;20128;45.582;5.298;2023-04-10T16:27:52;22.60;35.70
33827;DHT22;20128;45.582;5.298;2023-04-10T16:30:18;22.50;36.20
33827;DHT22;20128;45.582;5.298;2023-04-10T16:32:43;22.50;36.20
33827;DHT22;20128;45.582;5.298;2023-04-10T16:35:09;22.40;36.60
33827;DHT22;20128;45.582;5.298;2023-04-10T16:37:35;22.40;37.30
33827;DHT22;20128;45.582;5.298;2023-04-10T16:40:02;22.30;37.80
33827;DHT22;20128;45.582;5.298;2023-04-10T16:42:28;22.40;38.20
33827;DHT22;20128;45.582;5.298;2023-04-10T16:44:53;22.30;38.10
33827;DHT22;20128;45.582;5.298;2023-04-10T16:47:19;22.20;39.00
33827;DHT22;20128;45.582;5.298;2023-04-10T16:49:45;22.20;39.10
33827;DHT22;20128;45.582;5.298;2023-04-10T16:52:11;22.20;39.00
33827;DHT22;20128;45.582;5.298;2023-04-10T16:54:38;22.10;38.60
33827;DHT22;20128;45.582;5.298;2023-04-10T16:57:03;22.10;38.80
33827;DHT22;20128;45.582;5.298;2023-04-10T16:59:31;22.10;39.10
33827;DHT22;20128;45.582;5.298;2023-04-10T17:01:57;22.00;39.80
33827;DHT22;20128;45.582;5.298;2023-04-10T17:04:23;22.00;39.50
33827;DHT22;20128;45.582;5.298;2023-04-10T17:06:48;21.90;39.60
33827;DHT22;20128;45.582;5.298;2023-04-10T17:09:14;21.90;39.80
33827;DHT22;20128;45.582;5.298;2023-04-10T17:11:40;21.70;40.00
33827;DHT22;20128;45.582;5.298;2023-04-10T17:14:05;21.60;40.30
33827;DHT22;20128;45.582;5.298;2023-04-10T17:16:32;21.50;40.70
33827;DHT22;20128;45.582;5.298;2023-04-10T17:18:57;21.50;41.20
33827;DHT22;20128;45.582;5.298;2023-04-10T17:21:23;21.40;41.50
33827;DHT22;20128;45.582;5.298;2023-04-10T17:23:49;21.40;41.60
33827;DHT22;20128;45.582;5.298;2023-04-10T17:26:15;21.40;42.20
33827;DHT22;20128;45.582;5.298;2023-04-10T17:28:41;21.40;43.30
33827;DHT22;20128;45.582;5.298;2023-04-10T17:31:11;21.40;43.20
33827;DHT22;20128;45.582;5.298;2023-04-10T17:33:37;21.40;43.80
33827;DHT22;20128;45.582;5.298;2023-04-10T17:36:03;21.30;44.30
33827;DHT22;20128;45.582;5.298;2023-04-10T17:38:29;21.30;45.30
33827;DHT22;20128;45.582;5.298;2023-04-10T17:40:54;21.20;45.40
33827;DHT22;20128;45.582;5.298;2023-04-10T17:43:20;21.20;45.70
33827;DHT22;20128;45.582;5.298;2023-04-10T17:45:46;21.20;46.00
33827;DHT22;20128;45.582;5.298;2023-04-10T17:48:11;21.20;46.40
33827;DHT22;20128;45.582;5.298;2023-04-10T17:50:37;21.10;46.60
33827;DHT22;20128;45.582;5.298;2023-04-10T17:53:03;21.10;46.90
33827;DHT22;20128;45.582;5.298;2023-04-10T17:55:28;21.00;47.00
33827;DHT22;20128;45.582;5.298;2023-04-10T17:57:56;21.00;47.20
33827;DHT22;20128;45.582;5.298;2023-04-10T18:00:22;21.00;47.50
33827;DHT22;20128;45.582;5.298;2023-04-10T18:02:48;20.90;47.30
33827;DHT22;20128;45.582;5.298;2023-04-10T18:05:13;20.90;47.30
33827;DHT22;20128;45.582;5.298;2023-04-10T18:07:39;20.90;47.30
33827;DHT22;20128;45.582;5.298;2023-04-10T18:10:06;20.90;46.80
33827;DHT22;20128;45.582;5.298;2023-04-10T18:12:32;20.90;46.60
33827;DHT22;20128;45.582;5.298;2023-04-10T18:14:57;20.70;46.70
33827;DHT22;20128;45.582;5.298;2023-04-10T18:17:23;20.60;46.70
33827;DHT22;20128;45.582;5.298;2023-04-10T18:19:49;20.50;46.80
33827;DHT22;20128;45.582;5.298;2023-04-10T18:22:16;20.50;47.30
33827;DHT22;20128;45.582;5.298;2023-04-10T18:24:47;20.50;47.80
33827;DHT22;20128;45.582;5.298;2023-04-10T18:27:13;20.50;48.20
33827;DHT22;20128;45.582;5.298;2023-04-10T18:29:41;20.50;48.00
33827;DHT22;20128;45.582;5.298;2023-04-10T18:32:06;20.40;48.00
33827;DHT22;20128;45.582;5.298;2023-04-10T18:34:32;20.40;48.30
33827;DHT22;20128;45.582;5.298;2023-04-10T18:36:58;20.40;48.40
33827;DHT22;20128;45.582;5.298;2023-04-10T18:39:24;20.30;48.50
33827;DHT22;20128;45.582;5.298;2023-04-10T18:41:50;20.30;48.70
33827;DHT22;20128;45.582;5.298;2023-04-10T18:44:16;20.20;48.80
33827;DHT22;20128;45.582;5.298;2023-04-10T18:46:41;20.20;49.00
33827;DHT22;20128;45.582;5.298;2023-04-10T18:49:09;20.20;49.30
33827;DHT22;20128;45.582;5.298;2023-04-10T18:51:34;20.20;49.40
33827;DHT22;20128;45.582;5.298;2023-04-10T18:54:00;20.20;49.80
33827;DHT22;20128;45.582;5.298;2023-04-10T18:56:26;20.10;49.90
33827;DHT22;20128;45.582;5.298;2023-04-10T18:58:52;20.10;50.00
33827;DHT22;20128;45.582;5.298;2023-04-10T19:01:17;20.10;50.40
33827;DHT22;20128;45.582;5.298;2023-04-10T19:03:44;20.10;50.60
33827;DHT22;20128;45.582;5.298;2023-04-10T19:06:10;20.10;50.70
33827;DHT22;20128;45.582;5.298;2023-04-10T19:08:36;20.10;50.80
33827;DHT22;20128;45.582;5.298;2023-04-10T19:11:08;20.00;50.80
33827;DHT22;20128;45.582;5.298;2023-04-10T19:13:34;20.00;51.40
33827;DHT22;20128;45.582;5.298;2023-04-10T19:16:03;20.00;51.20
33827;DHT22;20128;45.582;5.298;2023-04-10T19:18:29;19.90;51.50
33827;DHT22;20128;45.582;5.298;2023-04-10T19:20:55;19.90;51.50
33827;DHT22;20128;45.582;5.298;2023-04-10T19:23:21;19.90;51.70
33827;DHT22;20128;45.582;5.298;2023-04-10T19:25:53;19.90;51.80
33827;DHT22;20128;45.582;5.298;2023-04-10T19:28:19;19.90;53.00
33827;DHT22;20128;45.582;5.298;2023-04-10T19:30:45;19.80;52.10
33827;DHT22;20128;45.582;5.298;2023-04-10T19:33:10;19.80;52.40
33827;DHT22;20128;45.582;5.298;2023-04-10T19:35:36;19.80;52.20
33827;DHT22;20128;45.582;5.298;2023-04-10T19:38:02;19.70;52.40
33827;DHT22;20128;45.582;5.298;2023-04-10T19:40:29;19.70;52.50
33827;DHT22;20128;45.582;5.298;2023-04-10T19:42:55;19.70;52.80
33827;DHT22;20128;45.582;5.298;2023-04-10T19:45:23;19.70;52.60
33827;DHT22;20128;45.582;5.298;2023-04-10T19:47:51;19.70;52.70
33827;DHT22;20128;45.582;5.298;2023-04-10T19:50:17;19.60;52.80
33827;DHT22;20128;45.582;5.298;2023-04-10T19:52:43;19.60;52.90
33827;DHT22;20128;45.582;5.298;2023-04-10T19:55:08;19.60;52.80
33827;DHT22;20128;45.582;5.298;2023-04-10T19:57:34;19.50;52.60
33827;DHT22;20128;45.582;5.298;2023-04-10T20:00:00;19.40;52.10
33827;DHT22;20128;45.582;5.298;2023-04-10T20:02:26;19.40;52.30
33827;DHT22;20128;45.582;5.298;2023-04-10T20:04:51;19.40;52.40
33827;DHT22;20128;45.582;5.298;2023-04-10T20:07:17;19.40;52.80
33827;DHT22;20128;45.582;5.298;2023-04-10T20:09:42;19.40;53.10
33827;DHT22;20128;45.582;5.298;2023-04-10T20:12:08;19.40;53.50
33827;DHT22;20128;45.582;5.298;2023-04-10T20:14:34;19.40;53.80
33827;DHT22;20128;45.582;5.298;2023-04-10T20:16:59;19.40;53.60
33827;DHT22;20128;45.582;5.298;2023-04-10T20:19:25;19.30;53.40
33827;DHT22;20128;45.582;5.298;2023-04-10T20:21:50;19.30;53.70
33827;DHT22;20128;45.582;5.298;2023-04-10T20:24:16;19.30;53.80
33827;DHT22;20128;45.582;5.298;2023-04-10T20:26:42;19.30;53.70
33827;DHT22;20128;45.582;5.298;2023-04-10T20:29:10;19.30;53.50
33827;DHT22;20128;45.582;5.298;2023-04-10T20:31:35;19.20;53.60
33827;DHT22;20128;45.582;5.298;2023-04-10T20:34:01;19.20;53.70
33827;DHT22;20128;45.582;5.298;2023-04-10T20:36:27;19.20;54.00
33827;DHT22;20128;45.582;5.298;2023-04-10T20:38:52;19.10;53.80
33827;DHT22;20128;45.582;5.298;2023-04-10T20:41:18;19.10;53.50
33827;DHT22;20128;45.582;5.298;2023-04-10T20:43:44;19.00;53.60
33827;DHT22;20128;45.582;5.298;2023-04-10T20:46:10;19.00;53.60
33827;DHT22;20128;45.582;5.298;2023-04-10T20:48:35;18.90;53.60
33827;DHT22;20128;45.582;5.298;2023-04-10T20:51:04;18.90;53.30
33827;DHT22;20128;45.582;5.298;2023-04-10T20:53:30;18.90;53.10
33827;DHT22;20128;45.582;5.298;2023-04-10T20:55:55;18.80;52.70
33827;DHT22;20128;45.582;5.298;2023-04-10T20:58:21;18.80;52.90
33827;DHT22;20128;45.582;5.298;2023-04-10T21:00:53;18.80;53.60
33827;DHT22;20128;45.582;5.298;2023-04-10T21:03:19;18.70;54.20
33827;DHT22;20128;45.582;5.298;2023-04-10T21:05:45;18.70;54.70
33827;DHT22;20128;45.582;5.298;2023-04-10T21:08:11;18.80;55.30
33827;DHT22;20128;45.582;5.298;2023-04-10T21:10:38;18.70;55.50
33827;DHT22;20128;45.582;5.298;2023-04-10T21:13:17;18.80;56.10
33827;DHT22;20128;45.582;5.298;2023-04-10T21:15:43;18.80;56.20
33827;DHT22;20128;45.582;5.298;2023-04-10T21:18:09;18.70;56.50
33827;DHT22;20128;45.582;5.298;2023-04-10T21:20:34;18.70;57.20
33827;DHT22;20128;45.582;5.298;2023-04-10T21:23:01;18.70;57.20
33827;DHT22;20128;45.582;5.298;2023-04-10T21:25:26;18.70;58.00
33827;DHT22;20128;45.582;5.298;2023-04-10T21:27:52;18.60;58.30
33827;DHT22;20128;45.582;5.298;2023-04-10T21:30:18;18.60;58.40
33827;DHT22;20128;45.582;5.298;2023-04-10T21:32:44;18.70;58.40
33827;DHT22;20128;45.582;5.298;2023-04-10T21:35:09;18.70;58.50
33827;DHT22;20128;45.582;5.298;2023-04-10T21:37:35;18.70;58.60
33827;DHT22;20128;45.582;5.298;2023-04-10T21:40:00;18.70;58.70
33827;DHT22;20128;45.582;5.298;2023-04-10T21:42:26;18.70;58.70
33827;DHT22;20128;45.582;5.298;2023-04-10T21:44:52;18.70;58.80
33827;DHT22;20128;45.582;5.298;2023-04-10T21:47:18;18.70;59.10
33827;DHT22;20128;45.582;5.298;2023-04-10T21:49:44;18.60;59.60
33827;DHT22;20128;45.582;5.298;2023-04-10T21:52:10;18.50;60.20
33827;DHT22;20128;45.582;5.298;2023-04-10T21:54:36;18.50;60.00
33827;DHT22;20128;45.582;5.298;2023-04-10T21:57:02;18.40;60.10
33827;DHT22;20128;45.582;5.298;2023-04-10T21:59:27;18.40;60.50
33827;DHT22;20128;45.582;5.298;2023-04-10T22:01:56;18.30;60.90
33827;DHT22;20128;45.582;5.298;2023-04-10T22:04:22;18.30;60.70
33827;DHT22;20128;45.582;5.298;2023-04-10T22:06:47;18.40;60.90
33827;DHT22;20128;45.582;5.298;2023-04-10T22:09:13;18.30;61.10
33827;DHT22;20128;45.582;5.298;2023-04-10T22:11:39;18.20;61.30
33827;DHT22;20128;45.582;5.298;2023-04-10T22:14:07;18.20;61.40
33827;DHT22;20128;45.582;5.298;2023-04-10T22:16:33;18.20;61.90
33827;DHT22;20128;45.582;5.298;2023-04-10T22:18:59;18.20;61.30
33827;DHT22;20128;45.582;5.298;2023-04-10T22:21:24;18.10;61.40
33827;DHT22;20128;45.582;5.298;2023-04-10T22:23:50;18.10;61.60
33827;DHT22;20128;45.582;5.298;2023-04-10T22:26:16;18.10;61.40
33827;DHT22;20128;45.582;5.298;2023-04-10T22:28:44;18.00;61.70
33827;DHT22;20128;45.582;5.298;2023-04-10T22:31:14;17.90;61.80
33827;DHT22;20128;45.582;5.298;2023-04-10T22:33:40;17.90;61.90
33827;DHT22;20128;45.582;5.298;2023-04-10T22:36:06;17.90;62.10
33827;DHT22;20128;45.582;5.298;2023-04-10T22:38:32;17.80;62.20
33827;DHT22;20128;45.582;5.298;2023-04-10T22:40:58;17.80;62.20
33827;DHT22;20128;45.582;5.298;2023-04-10T22:43:24;17.80;62.50
33827;DHT22;20128;45.582;5.298;2023-04-10T22:45:49;17.80;62.30
33827;DHT22;20128;45.582;5.298;2023-04-10T22:48:15;17.80;62.40
33827;DHT22;20128;45.582;5.298;2023-04-10T22:50:42;17.80;62.40
33827;DHT22;20128;45.582;5.298;2023-04-10T22:53:09;17.70;62.20
33827;DHT22;20128;45.582;5.298;2023-04-10T22:55:38;17.70;62.30
33827;DHT22;20128;45.582;5.298;2023-04-10T22:58:05;17.70;62.30
33827;DHT22;20128;45.582;5.298;2023-04-10T23:00:32;17.70;62.30
33827;DHT22;20128;45.582;5.298;2023-04-10T23:02:58;17.70;62.80
33827;DHT22;20128;45.582;5.298;2023-04-10T23:05:23;17.70;62.30
33827;DHT22;20128;45.582;5.298;2023-04-10T23:07:49;17.60;62.30
33827;DHT22;20128;45.582;5.298;2023-04-10T23:10:15;17.50;62.40
33827;DHT22;20128;45.582;5.298;2023-04-10T23:12:40;17.50;62.70
33827;DHT22;20128;45.582;5.298;2023-04-10T23:15:06;17.50;62.90
33827;DHT22;20128;45.582;5.298;2023-04-10T23:17:33;17.40;62.90
33827;DHT22;20128;45.582;5.298;2023-04-10T23:19:58;17.40;62.80
33827;DHT22;20128;45.582;5.298;2023-04-10T23:22:24;17.40;62.80
33827;DHT22;20128;45.582;5.298;2023-04-10T23:24:56;17.40;62.90
33827;DHT22;20128;45.582;5.298;2023-04-10T23:27:22;17.40;63.00
33827;DHT22;20128;45.582;5.298;2023-04-10T23:29:48;17.30;63.10
33827;DHT22;20128;45.582;5.298;2023-04-10T23:32:14;17.20;63.10
33827;DHT22;20128;45.582;5.298;2023-04-10T23:34:40;17.10;63.40
33827;DHT22;20128;45.582;5.298;2023-04-10T23:37:06;17.10;63.30
33827;DHT22;20128;45.582;5.298;2023-04-10T23:39:31;17.00;63.20
33827;DHT22;20128;45.582;5.298;2023-04-10T23:41:57;17.00;63.40
33827;DHT22;20128;45.582;5.298;2023-04-10T23:44:23;17.00;63.40
33827;DHT22;20128;45.582;5.298;2023-04-10T23:46:49;17.00;63.30
33827;DHT22;20128;45.582;5.298;2023-04-10T23:49:15;17.00;63.70
33827;DHT22;20128;45.582;5.298;2023-04-10T23:51:41;16.90;63.30
33827;DHT22;20128;45.582;5.298;2023-04-10T23:54:07;16.90;63.40
33827;DHT22;20128;45.582;5.298;2023-04-10T23:56:32;16.90;63.30
33827;DHT22;20128;45.582;5.298;2023-04-10T23:58:58;16.90;63.10
